Aeroporto :
LOGIN :

Iscrizione | Disclaimer

   EN    FR    IT 

 










Sommario :    VFR   VFR Marginale   IFR   IFR Intensivo   IFR Molto Intensivo
Visibilità : 
Base nubi : 
>= 8 km
>= 3000ft
5 / 8 km
1000 / 3000 ft
1500m / 5 km
500 / 1000 ft
800 / 1500m
200 / 500 ft
< 800m
< 200 ft
Simboli :   Temporali  Nebbia  Neve Forte  Precipitazioni Forti  Vento > 20 kt
SIGMETs :   Varie  Temporali  Ghiacco  Turbolenza  Onda orograficha  Ceneri Vulcaniche






- Altitudine del aeroporto : 17 ft
- Codice IATA : GRQ


EHGG - Groningen Eelde

ULTIMO METAR :
  • 131155Z AUTO 21011KT 180V240 9999 BKN016 BKN023 09/06 Q0996 NOSIG

METARs OBSOLETI :
  • 131125Z AUTO 20012KT 170V230 9999 SCT012 BKN016 BKN019 08/06 Q0996 NOSIG
  • 131055Z AUTO 20011KT 170V240 9999 FEW010 SCT016 08/06 Q0996 NOSIG
  • 131025Z AUTO 20014KT 170V230 9999 FEW015 SCT029 BKN036 08/06 Q0996 TEMPO 6000 SHRA FEW030CB
  • 130955Z AUTO 20011KT 170V230 9999 -UP FEW009 SCT010 BKN026 07/06 Q0996 TEMPO 6000 SHRA FEW030CB
  • 130925Z AUTO 20013KT 9999 SCT007 BKN009 BKN010 07/05 Q0996 BECMG BKN015 TEMPO 6000 SHRA FEW030CB

TAF TAF EHGG
Valido dal 13 a 12 ore il 14 a 18 ore UTC


131055Z 1312/1418 21012KT 9999 BKN025
TEMPO 1312/1316 6000 SHRA FEW020CB
BECMG 1312/1314 24012KT
BECMG 1316/1319 20008KT
BECMG 1321/1324 4000 BR
PROB40 1400/1404 1200 BKN004
BECMG 1407/1410 12010KT 9999 NSW



MetMap, La meteo Aeronautica in un colpo d'occhio ! - Copyright ORBIFLY Dicembre 2007 - Disclaimer

ORBIFLY MET'MAP TEAM :

Programmazione e sviluppo : Alexandra Zaïnal
Concezione e sviluppo : Baudouin d'Aumeries
Co-Programmazione e sviluppo : Marc-Olivier Méhu
Supporto tecnico e logistico : Manuel Goepfert
Aiuto per la traduzione : Arnaldo La Scala

Contatto : metmap@orbifly.com




FONTI E CREDITI :

   NOAA